createdAt,value
2019-03-21T00:00:03.429Z,5.51
2019-03-21T00:01:03.439Z,5.62
2019-03-21T00:02:03.457Z,5.61
2019-03-21T00:03:03.381Z,5.52
2019-03-21T00:04:03.367Z,5.67
2019-03-21T00:05:03.360Z,5.58
2019-03-21T00:06:03.400Z,5.72
2019-03-21T00:07:03.343Z,5.67
2019-03-21T00:08:03.320Z,5.69
2019-03-21T00:09:03.309Z,5.65
2019-03-21T00:10:03.304Z,5.65
2019-03-21T00:11:03.294Z,5.66
2019-03-21T00:12:03.316Z,5.65
2019-03-21T00:13:03.274Z,5.62
2019-03-21T00:14:07.167Z,5.69
2019-03-21T00:15:03.252Z,5.62
2019-03-21T00:16:03.233Z,5.73
2019-03-21T00:17:03.267Z,5.67
2019-03-21T00:18:03.216Z,5.62
2019-03-21T00:19:03.202Z,5.58
2019-03-21T00:20:03.199Z,5.51
2019-03-21T00:21:03.188Z,5.47
2019-03-21T00:22:03.214Z,5.47
2019-03-21T00:23:03.163Z,5.32
2019-03-21T00:24:03.154Z,5.30
2019-03-21T00:25:03.140Z,5.29
2019-03-21T00:26:03.181Z,5.32
2019-03-21T00:27:03.117Z,5.22
2019-03-21T00:28:03.143Z,5.25
2019-03-21T00:29:03.096Z,5.27
2019-03-21T00:30:03.091Z,5.22
2019-03-21T00:31:03.074Z,5.19
2019-03-21T00:32:03.061Z,5.19
2019-03-21T00:33:03.053Z,5.16
2019-03-21T00:34:03.090Z,5.22
2019-03-21T00:35:03.077Z,5.18
2019-03-21T00:36:03.025Z,5.25
2019-03-21T00:37:03.007Z,5.21
2019-03-21T00:38:02.998Z,5.27
2019-03-21T00:39:02.987Z,5.22
2019-03-21T00:40:02.977Z,5.19
2019-03-21T00:41:03.012Z,5.11
2019-03-21T00:42:02.972Z,5.06
2019-03-21T00:43:02.943Z,5.11
2019-03-21T00:44:02.932Z,5.07
2019-03-21T00:45:02.926Z,5.14
2019-03-21T00:46:02.909Z,4.96
2019-03-21T00:47:02.940Z,4.93
2019-03-21T00:48:02.888Z,4.88
2019-03-21T00:49:02.879Z,4.89
2019-03-21T00:50:02.867Z,4.88
2019-03-21T00:51:02.883Z,4.78
2019-03-21T00:52:02.851Z,4.79
2019-03-21T00:53:02.880Z,4.79
2019-03-21T00:54:02.824Z,4.83
2019-03-21T00:55:02.817Z,4.88
2019-03-21T00:56:02.802Z,4.89
2019-03-21T00:57:02.802Z,4.93
2019-03-21T00:58:02.829Z,4.91
2019-03-21T00:59:02.777Z,4.88
2019-03-21T01:00:02.770Z,4.85
2019-03-21T01:01:02.748Z,4.83
2019-03-21T01:02:02.790Z,4.75
2019-03-21T01:03:03.774Z,4.79
2019-03-21T01:04:02.715Z,4.77
2019-03-21T01:05:02.717Z,4.78
2019-03-21T01:06:02.694Z,4.71
2019-03-21T01:07:02.728Z,4.72
2019-03-21T01:08:02.719Z,4.74
2019-03-21T01:09:02.661Z,4.66
2019-03-21T01:10:02.680Z,4.59
2019-03-21T01:11:02.682Z,4.66
2019-03-21T01:12:02.631Z,4.72
2019-03-21T01:13:02.622Z,4.85
2019-03-21T01:14:02.645Z,4.98
2019-03-21T01:15:02.602Z,5.11
2019-03-21T01:16:02.586Z,5.15
2019-03-21T01:17:02.579Z,5.04
2019-03-21T01:18:02.610Z,5.15
2019-03-21T01:19:02.555Z,5.18
2019-03-21T01:20:02.545Z,5.12
2019-03-21T01:21:02.569Z,5.11
2019-03-21T01:22:02.526Z,5.03
2019-03-21T01:23:02.515Z,5.00
2019-03-21T01:24:02.499Z,4.89
2019-03-21T01:25:02.490Z,4.83
2019-03-21T01:26:02.523Z,4.85
2019-03-21T01:27:02.467Z,4.78
2019-03-21T01:28:02.498Z,4.82
2019-03-21T01:29:02.455Z,4.78
2019-03-21T01:30:02.437Z,4.75
2019-03-21T01:31:02.472Z,4.74
2019-03-21T01:32:02.415Z,4.74
2019-03-21T01:33:02.402Z,4.72
2019-03-21T01:34:02.431Z,4.71
2019-03-21T01:35:02.384Z,4.66
2019-03-21T01:36:02.412Z,4.69
2019-03-21T01:37:02.361Z,4.71
2019-03-21T01:38:02.350Z,4.66
2019-03-21T01:39:02.381Z,4.63
2019-03-21T01:40:02.327Z,4.74
2019-03-21T01:41:02.323Z,4.88
2019-03-21T01:42:02.305Z,4.89
2019-03-21T01:43:02.295Z,4.96
2019-03-21T01:44:02.284Z,5.09
2019-03-21T01:45:02.320Z,5.03
2019-03-21T01:46:02.261Z,5.18
2019-03-21T01:47:02.267Z,5.29
2019-03-21T01:48:02.281Z,5.24
2019-03-21T01:49:02.236Z,5.18
2019-03-21T01:50:02.219Z,5.14
2019-03-21T01:51:02.213Z,5.09
2019-03-21T01:52:02.198Z,5.00
2019-03-21T01:53:02.197Z,5.03
2019-03-21T01:54:02.216Z,4.97
2019-03-21T01:55:02.166Z,5.07
2019-03-21T01:56:02.200Z,4.97
2019-03-21T01:57:02.148Z,5.00
2019-03-21T01:58:02.134Z,4.97
2019-03-21T01:59:02.127Z,5.03
2019-03-21T02:00:02.115Z,5.01
2019-03-21T02:01:02.148Z,4.96
2019-03-21T02:02:02.134Z,5.00
2019-03-21T02:03:02.115Z,5.12
2019-03-21T02:04:02.073Z,4.97
2019-03-21T02:05:02.059Z,4.94
2019-03-21T02:06:02.062Z,4.82
2019-03-21T02:07:02.090Z,4.71
2019-03-21T02:08:02.030Z,4.72
2019-03-21T02:09:02.018Z,4.71
2019-03-21T02:10:02.047Z,4.71
2019-03-21T02:11:02.034Z,4.67
2019-03-21T02:12:01.982Z,4.64
2019-03-21T02:13:01.971Z,4.53
2019-03-21T02:14:01.961Z,4.51
2019-03-21T02:15:01.954Z,4.54
2019-03-21T02:16:01.984Z,4.54
2019-03-21T02:17:01.934Z,4.67
2019-03-21T02:18:01.919Z,4.82
2019-03-21T02:19:01.950Z,4.85
2019-03-21T02:20:01.949Z,4.88
2019-03-21T02:21:01.908Z,4.89
2019-03-21T02:22:01.920Z,4.83
2019-03-21T02:23:01.905Z,4.89
2019-03-21T02:24:01.853Z,4.94
2019-03-21T02:25:01.841Z,5.03
2019-03-21T02:26:01.835Z,5.11
2019-03-21T02:27:01.821Z,5.09
2019-03-21T02:28:01.814Z,5.07
2019-03-21T02:29:01.841Z,5.01
2019-03-21T02:30:01.856Z,5.07
2019-03-21T02:31:01.794Z,5.03
2019-03-21T02:32:01.792Z,4.88
2019-03-21T02:33:01.757Z,4.83
2019-03-21T02:34:01.754Z,4.78
2019-03-21T02:35:01.774Z,4.75
2019-03-21T02:36:01.745Z,4.69
2019-03-21T02:37:01.759Z,4.72
2019-03-21T02:38:01.706Z,4.71
2019-03-21T02:39:01.694Z,4.59
2019-03-21T02:40:01.691Z,4.69
2019-03-21T02:41:01.719Z,4.53
2019-03-21T02:42:01.709Z,4.51
2019-03-21T02:43:01.679Z,4.56
2019-03-21T02:44:01.642Z,4.53
2019-03-21T02:45:08.402Z,4.63
2019-03-21T02:46:02.615Z,4.54
2019-03-21T02:47:01.604Z,4.61
2019-03-21T02:48:01.634Z,4.57
2019-03-21T02:49:01.586Z,4.57
2019-03-21T02:50:01.628Z,4.67
2019-03-21T02:51:01.565Z,4.51
2019-03-21T02:52:01.556Z,4.56
2019-03-21T02:53:01.548Z,4.63
2019-03-21T02:54:01.578Z,4.64
2019-03-21T02:55:01.569Z,4.51
2019-03-21T02:56:01.517Z,4.53
2019-03-21T02:57:01.497Z,4.54
2019-03-21T02:58:01.491Z,4.60
2019-03-21T02:59:01.478Z,4.60
2019-03-21T03:00:01.512Z,4.54
2019-03-21T03:01:01.508Z,4.64
2019-03-21T03:02:01.448Z,4.57
2019-03-21T03:03:01.439Z,4.53
2019-03-21T03:04:01.423Z,4.46
2019-03-21T03:05:01.412Z,4.53
2019-03-21T03:06:01.456Z,4.48
2019-03-21T03:07:01.437Z,4.34
2019-03-21T03:08:01.379Z,4.36
2019-03-21T03:09:01.425Z,4.35
2019-03-21T03:10:01.411Z,4.39
2019-03-21T03:11:01.362Z,4.41
2019-03-21T03:12:01.340Z,4.57
2019-03-21T03:13:01.324Z,4.53
2019-03-21T03:14:04.344Z,4.45
2019-03-21T03:15:01.307Z,4.34
2019-03-21T03:16:01.346Z,4.38
2019-03-21T03:17:01.319Z,4.34
2019-03-21T03:18:01.271Z,4.41
2019-03-21T03:19:01.259Z,4.26
2019-03-21T03:20:01.248Z,4.41
2019-03-21T03:21:01.242Z,4.49
2019-03-21T03:22:01.280Z,4.63
2019-03-21T03:23:01.216Z,4.56
2019-03-21T03:24:01.205Z,4.59
2019-03-21T03:25:01.196Z,4.60
2019-03-21T03:26:01.189Z,4.57
2019-03-21T03:27:01.217Z,4.56
2019-03-21T03:28:01.208Z,4.53
2019-03-21T03:29:01.151Z,4.53
2019-03-21T03:30:01.165Z,4.45
2019-03-21T03:31:01.145Z,4.43
2019-03-21T03:32:01.125Z,4.38
2019-03-21T03:33:01.217Z,4.23
2019-03-21T03:34:01.096Z,4.36
2019-03-21T03:35:01.301Z,4.31
2019-03-21T03:36:01.075Z,4.27
2019-03-21T03:37:01.070Z,4.38
2019-03-21T03:38:01.109Z,4.28
2019-03-21T03:39:01.042Z,4.23
2019-03-21T03:40:01.047Z,4.38
2019-03-21T03:41:01.021Z,4.45
2019-03-21T03:42:01.008Z,4.59
2019-03-21T03:43:01.060Z,4.59
2019-03-21T03:44:00.987Z,4.51
2019-03-21T03:45:00.980Z,4.57
2019-03-21T03:46:00.974Z,4.56
2019-03-21T03:47:00.958Z,4.54
2019-03-21T03:48:00.989Z,4.54
2019-03-21T03:49:00.934Z,4.57
2019-03-21T03:50:00.963Z,4.60
2019-03-21T03:51:00.909Z,4.49
2019-03-21T03:52:00.912Z,4.43
2019-03-21T03:53:00.889Z,4.31
2019-03-21T03:54:00.883Z,4.49
2019-03-21T03:55:00.870Z,4.43
2019-03-21T03:56:00.908Z,4.56
2019-03-21T03:57:00.867Z,4.56
2019-03-21T03:58:00.841Z,4.54
2019-03-21T03:59:00.830Z,4.56
2019-03-21T04:00:00.813Z,4.54
2019-03-21T04:01:00.802Z,4.54
2019-03-21T04:02:00.851Z,4.57
2019-03-21T04:03:00.824Z,4.51
2019-03-21T04:04:00.777Z,4.49
2019-03-21T04:05:00.758Z,4.42
2019-03-21T04:06:00.761Z,4.34
2019-03-21T04:07:00.740Z,4.34
2019-03-21T04:08:00.744Z,4.30
2019-03-21T04:09:00.764Z,4.48
2019-03-21T04:10:00.704Z,4.48
2019-03-21T04:11:00.699Z,4.35
2019-03-21T04:12:00.686Z,4.39
2019-03-21T04:13:00.675Z,4.38
2019-03-21T04:14:00.670Z,4.30
2019-03-21T04:15:00.698Z,4.17
2019-03-21T04:16:00.638Z,4.08
2019-03-21T04:17:00.629Z,4.10
2019-03-21T04:18:00.618Z,4.05
2019-03-21T04:19:00.616Z,4.08
2019-03-21T04:20:00.598Z,4.10
2019-03-21T04:21:00.638Z,4.16
2019-03-21T04:22:00.592Z,4.10
2019-03-21T04:23:00.570Z,4.13
2019-03-21T04:24:00.557Z,4.26
2019-03-21T04:25:00.590Z,4.21
2019-03-21T04:26:00.533Z,4.23
2019-03-21T04:27:00.570Z,4.24
2019-03-21T04:28:00.520Z,4.24
2019-03-21T04:29:00.497Z,4.24
2019-03-21T04:30:00.495Z,4.24
2019-03-21T04:31:00.478Z,4.24
2019-03-21T04:32:00.516Z,4.26
2019-03-21T04:33:00.457Z,4.23
2019-03-21T04:34:00.485Z,4.20
2019-03-21T04:35:00.431Z,4.10
2019-03-21T04:36:00.423Z,4.18
2019-03-21T04:37:00.411Z,4.05
2019-03-21T04:38:00.405Z,3.99
2019-03-21T04:39:00.445Z,4.05
2019-03-21T04:40:00.471Z,4.16
2019-03-21T04:41:00.369Z,4.16
2019-03-21T04:42:00.356Z,4.02
2019-03-21T04:43:00.346Z,4.09
2019-03-21T04:44:00.380Z,4.03
2019-03-21T04:45:00.346Z,4.05
2019-03-21T04:46:03.769Z,4.16
2019-03-21T04:47:00.300Z,4.09
2019-03-21T04:48:00.291Z,4.21
2019-03-21T04:49:00.329Z,4.13
2019-03-21T04:50:00.354Z,4.17
2019-03-21T04:51:00.307Z,4.12
2019-03-21T04:52:00.262Z,4.17
2019-03-21T04:53:00.236Z,4.20
2019-03-21T04:54:00.236Z,4.18
2019-03-21T04:55:00.412Z,4.10
2019-03-21T04:56:00.203Z,4.20
2019-03-21T04:57:00.240Z,4.24
2019-03-21T04:58:00.192Z,4.23
2019-03-21T04:59:00.175Z,4.30
2019-03-21T05:00:00.572Z,4.21
2019-03-21T05:01:00.149Z,4.24
2019-03-21T05:02:00.140Z,4.24
2019-03-21T05:03:00.167Z,4.20
2019-03-21T05:04:00.119Z,4.27
2019-03-21T05:05:00.115Z,4.24
2019-03-21T05:06:00.098Z,4.09
2019-03-21T05:07:00.085Z,4.21
2019-03-21T05:08:00.080Z,4.23
2019-03-21T05:09:00.103Z,4.24
2019-03-21T05:10:00.053Z,4.31
2019-03-21T05:11:00.042Z,4.26
2019-03-21T05:12:00.031Z,4.26
2019-03-21T05:13:00.022Z,4.24
2019-03-21T05:14:00.014Z,4.26
2019-03-21T05:15:00.051Z,4.26
2019-03-21T05:15:59.989Z,4.38
2019-03-21T05:16:59.977Z,4.23
2019-03-21T05:17:59.966Z,4.30
2019-03-21T05:18:59.958Z,4.18
2019-03-21T05:19:59.948Z,4.24
2019-03-21T05:20:59.974Z,4.36
2019-03-21T05:21:59.972Z,4.27
2019-03-21T05:22:59.912Z,4.23
2019-03-21T05:23:59.941Z,4.28
2019-03-21T05:24:59.900Z,4.38
2019-03-21T05:25:59.927Z,4.43
2019-03-21T05:26:59.913Z,4.43
2019-03-21T05:27:59.859Z,4.42
2019-03-21T05:28:59.846Z,4.34
2019-03-21T05:29:59.860Z,4.30
2019-03-21T05:30:59.883Z,4.24
2019-03-21T05:31:59.819Z,4.18
2019-03-21T05:32:59.801Z,4.12
2019-03-21T05:33:59.792Z,4.03
2019-03-21T05:34:59.781Z,4.06
2019-03-21T05:35:59.775Z,4.09
2019-03-21T05:36:59.806Z,4.09
2019-03-21T05:37:59.824Z,3.98
2019-03-21T05:38:59.741Z,4.10
2019-03-21T05:39:59.738Z,4.06
2019-03-21T05:40:59.717Z,4.16
2019-03-21T05:41:59.713Z,4.08
2019-03-21T05:42:59.706Z,4.10
2019-03-21T05:43:59.730Z,4.17
2019-03-21T05:44:59.672Z,4.05
2019-03-21T05:45:59.668Z,4.05
2019-03-21T05:46:59.654Z,4.08
2019-03-21T05:47:59.648Z,4.13
2019-03-21T05:48:59.631Z,4.13
2019-03-21T05:49:59.659Z,4.09
2019-03-21T05:50:59.615Z,4.12
2019-03-21T05:51:59.597Z,4.23
2019-03-21T05:52:59.589Z,4.24
2019-03-21T05:53:59.577Z,4.24
2019-03-21T05:54:59.610Z,4.26
2019-03-21T05:55:59.574Z,4.21
2019-03-21T05:56:59.543Z,4.20
2019-03-21T05:57:59.576Z,4.24
2019-03-21T05:58:59.531Z,4.17
2019-03-21T05:59:59.512Z,4.17
2019-03-21T06:00:59.546Z,4.18
2019-03-21T06:01:59.513Z,4.24
2019-03-21T06:02:59.482Z,4.23
2019-03-21T06:03:59.593Z,4.26
2019-03-21T06:04:59.472Z,4.21
2019-03-21T06:05:59.515Z,4.48
2019-03-21T06:06:59.462Z,4.48
2019-03-21T06:07:59.448Z,4.42
2019-03-21T06:08:59.491Z,4.41
2019-03-21T06:09:59.433Z,4.53
2019-03-21T06:10:59.414Z,4.51
2019-03-21T06:11:59.392Z,4.56
2019-03-21T06:12:59.382Z,4.54
2019-03-21T06:13:59.364Z,4.59
2019-03-21T06:14:59.401Z,4.56
2019-03-21T06:15:59.352Z,4.46
2019-03-21T06:16:59.420Z,4.45
2019-03-21T06:17:59.331Z,4.43
2019-03-21T06:18:59.409Z,4.46
2019-03-21T06:19:59.316Z,4.42
2019-03-21T06:20:59.298Z,4.43
2019-03-21T06:21:59.276Z,4.59
2019-03-21T06:22:59.338Z,4.56
2019-03-21T06:23:59.301Z,4.56
2019-03-21T06:24:59.265Z,4.59
2019-03-21T06:25:59.332Z,4.63
2019-03-21T06:26:59.239Z,4.71
2019-03-21T06:27:59.210Z,4.61
2019-03-21T06:28:59.255Z,4.64
2019-03-21T06:29:59.251Z,4.67
2019-03-21T06:30:59.230Z,4.67
2019-03-21T06:31:59.180Z,4.57
2019-03-21T06:32:59.205Z,4.71
2019-03-21T06:33:59.147Z,4.74
2019-03-21T06:34:59.155Z,4.71
2019-03-21T06:35:59.200Z,4.72
2019-03-21T06:36:59.178Z,4.64
2019-03-21T06:37:59.116Z,4.59
2019-03-21T06:38:59.126Z,4.78
2019-03-21T06:39:59.091Z,4.72
2019-03-21T06:40:59.114Z,4.82
2019-03-21T06:41:59.062Z,4.82
2019-03-21T06:42:59.341Z,4.86
2019-03-21T06:43:59.049Z,4.83
2019-03-21T06:44:59.029Z,4.78
2019-03-21T06:45:59.059Z,4.83
2019-03-21T06:46:59.044Z,4.94
2019-03-21T06:47:59.017Z,5.03
2019-03-21T06:48:59.088Z,5.09
2019-03-21T06:49:58.984Z,5.12
2019-03-21T06:50:58.986Z,5.06
2019-03-21T06:51:58.972Z,5.14
2019-03-21T06:52:58.951Z,5.12
2019-03-21T06:53:58.930Z,5.15
2019-03-21T06:54:59.973Z,5.18
2019-03-21T06:55:58.911Z,5.22
2019-03-21T06:56:58.915Z,5.25
2019-03-21T06:57:58.914Z,5.16
2019-03-21T06:58:58.885Z,5.19
2019-03-21T06:59:58.948Z,5.34
2019-03-21T07:00:59.157Z,5.39
2019-03-21T07:01:58.909Z,5.44
2019-03-21T07:02:58.873Z,5.52
2019-03-21T07:04:06.998Z,5.58
2019-03-21T07:04:59.811Z,5.69
2019-03-21T07:05:58.815Z,5.70
2019-03-21T07:07:07.599Z,5.75
2019-03-21T07:07:59.919Z,5.82
2019-03-21T07:08:58.767Z,5.88
2019-03-21T07:09:58.759Z,6.00
2019-03-21T07:10:58.810Z,6.00
2019-03-21T07:11:58.789Z,6.00
2019-03-21T07:12:58.778Z,5.98
2019-03-21T07:13:58.792Z,6.00
2019-03-21T07:14:58.755Z,5.95
2019-03-21T07:15:58.709Z,5.97
2019-03-21T07:17:00.607Z,6.08
2019-03-21T07:17:59.594Z,6.16
2019-03-21T07:18:58.662Z,6.28
2019-03-21T07:19:58.677Z,6.18
2019-03-21T07:21:01.006Z,6.24
2019-03-21T07:21:59.612Z,6.28
2019-03-21T07:22:58.694Z,6.35
2019-03-21T07:23:58.688Z,6.38
2019-03-21T07:24:58.657Z,6.42
2019-03-21T07:25:59.539Z,6.49
2019-03-21T07:26:59.139Z,6.42
2019-03-21T07:27:58.578Z,6.45
2019-03-21T07:28:58.683Z,6.50
2019-03-21T07:29:58.573Z,6.61
2019-03-21T07:30:58.550Z,6.57
2019-03-21T07:31:58.610Z,6.61
2019-03-21T07:32:58.570Z,6.61
2019-03-21T07:33:58.504Z,6.67
2019-03-21T07:34:58.530Z,6.52
2019-03-21T07:35:58.496Z,6.50
2019-03-21T07:36:58.487Z,6.57
2019-03-21T07:37:58.549Z,6.42
2019-03-21T07:38:59.054Z,6.46
2019-03-21T07:39:58.450Z,6.63
2019-03-21T07:40:58.436Z,6.65
2019-03-21T07:42:01.012Z,6.67
2019-03-21T07:42:58.419Z,6.64
2019-03-21T07:43:58.485Z,6.75
2019-03-21T07:44:58.390Z,6.82
2019-03-21T07:45:58.413Z,6.78
2019-03-21T07:46:58.383Z,6.91
2019-03-21T07:47:58.403Z,7.01
2019-03-21T07:48:58.358Z,7.03
2019-03-21T07:49:58.435Z,7.13
2019-03-21T07:50:58.349Z,7.19
2019-03-21T07:51:58.317Z,7.16
2019-03-21T07:52:58.448Z,7.31
2019-03-21T07:53:58.299Z,7.33
2019-03-21T07:54:58.369Z,7.31
2019-03-21T07:55:58.272Z,7.40
2019-03-21T07:56:58.361Z,7.43
2019-03-21T07:57:59.491Z,7.46
2019-03-21T07:58:58.254Z,7.42
2019-03-21T07:59:58.238Z,7.58
2019-03-21T08:00:58.271Z,7.52
2019-03-21T08:01:59.106Z,7.58
2019-03-21T08:02:58.212Z,7.49
2019-03-21T08:03:58.240Z,7.54
2019-03-21T08:04:58.226Z,7.62
2019-03-21T08:05:58.173Z,7.64
2019-03-21T08:06:58.213Z,7.61
2019-03-21T08:07:59.048Z,7.66
2019-03-21T08:08:58.613Z,7.76
2019-03-21T08:09:58.112Z,7.80
2019-03-21T08:10:58.189Z,7.86
2019-03-21T08:11:58.127Z,7.91
2019-03-21T08:12:58.094Z,7.83
2019-03-21T08:13:58.146Z,7.74
2019-03-21T08:14:58.216Z,7.83
2019-03-21T08:15:58.048Z,7.92
2019-03-21T08:16:58.163Z,7.91
2019-03-21T08:17:58.540Z,7.88
2019-03-21T08:18:58.544Z,7.91
2019-03-21T08:19:58.119Z,7.96
2019-03-21T08:21:00.047Z,7.99
2019-03-21T08:21:58.002Z,8.05
2019-03-21T08:22:58.118Z,8.16
2019-03-21T08:23:57.976Z,8.20
2019-03-21T08:24:57.964Z,8.14
2019-03-21T08:25:58.038Z,8.28
2019-03-21T08:26:57.942Z,8.34
2019-03-21T08:27:57.919Z,8.39
2019-03-21T08:28:57.919Z,8.44
2019-03-21T08:29:57.958Z,8.50
2019-03-21T08:30:57.890Z,8.86
2019-03-21T08:31:57.893Z,8.93
2019-03-21T08:32:57.852Z,8.92
2019-03-21T08:33:57.847Z,9.04
2019-03-21T08:34:57.913Z,9.04
2019-03-21T08:35:58.122Z,9.09
2019-03-21T08:36:57.825Z,9.12
2019-03-21T08:37:57.798Z,9.12
2019-03-21T08:38:57.802Z,9.09
2019-03-21T08:39:57.828Z,9.24
2019-03-21T08:40:57.787Z,9.18
2019-03-21T08:41:57.757Z,9.18
2019-03-21T08:42:57.759Z,9.22
2019-03-21T08:43:57.950Z,9.29
2019-03-21T08:44:57.795Z,9.30
2019-03-21T08:45:57.741Z,9.24
2019-03-21T08:46:57.703Z,9.41
2019-03-21T08:47:58.544Z,9.60
2019-03-21T08:48:57.690Z,9.55
2019-03-21T08:49:57.729Z,9.75
2019-03-21T08:51:07.829Z,9.69
2019-03-21T08:51:58.710Z,9.69
2019-03-21T08:52:57.663Z,9.88
2019-03-21T08:53:57.657Z,10.03
2019-03-21T08:54:57.628Z,10.14
2019-03-21T08:55:58.085Z,10.17
2019-03-21T08:56:57.641Z,10.17
2019-03-21T08:57:57.631Z,10.18
2019-03-21T08:58:57.570Z,10.16
2019-03-21T08:59:57.615Z,10.09
2019-03-21T09:00:57.642Z,10.14
2019-03-21T09:01:57.535Z,10.18
2019-03-21T09:02:57.523Z,10.21
2019-03-21T09:03:57.571Z,10.26
2019-03-21T09:04:59.683Z,10.30
2019-03-21T09:05:57.492Z,10.34
2019-03-21T09:06:57.487Z,10.36
2019-03-21T09:07:57.487Z,10.43
2019-03-21T09:08:57.465Z,10.41
2019-03-21T09:09:57.484Z,10.39
2019-03-21T09:10:57.512Z,10.57
2019-03-21T09:11:57.530Z,10.61
2019-03-21T09:12:57.458Z,10.78
2019-03-21T09:13:57.422Z,10.80
2019-03-21T09:14:57.483Z,10.82
2019-03-21T09:15:57.481Z,10.87
2019-03-21T09:16:57.369Z,11.00
2019-03-21T09:17:57.425Z,11.04
2019-03-21T09:18:57.357Z,11.13
2019-03-21T09:19:57.361Z,11.22
2019-03-21T09:20:58.057Z,11.19
2019-03-21T09:21:57.365Z,11.23
2019-03-21T09:22:57.308Z,11.30
2019-03-21T09:23:57.346Z,11.41
2019-03-21T09:24:57.300Z,11.46
2019-03-21T09:25:57.260Z,11.55
2019-03-21T09:26:57.278Z,11.64
2019-03-21T09:28:02.574Z,11.58
2019-03-21T09:28:58.287Z,11.70
2019-03-21T09:29:57.240Z,11.73
2019-03-21T09:30:57.219Z,11.74
2019-03-21T09:31:57.212Z,11.77
2019-03-21T09:32:57.187Z,11.87
2019-03-21T09:33:57.284Z,11.87
2019-03-21T09:34:57.210Z,11.97
2019-03-21T09:35:57.150Z,11.99
2019-03-21T09:36:57.171Z,12.05
2019-03-21T09:37:57.174Z,12.05
2019-03-21T09:38:57.119Z,12.14
2019-03-21T09:39:57.191Z,12.18
2019-03-21T09:40:57.192Z,12.35
2019-03-21T09:41:57.113Z,12.38
2019-03-21T09:42:57.080Z,12.41
2019-03-21T09:43:57.090Z,12.47
2019-03-21T09:44:57.083Z,12.47
2019-03-21T09:45:57.089Z,12.55
2019-03-21T09:46:57.035Z,12.44
2019-03-21T09:47:57.028Z,12.50
2019-03-21T09:48:57.017Z,12.54
2019-03-21T09:49:59.226Z,12.53
2019-03-21T09:50:57.129Z,12.61
2019-03-21T09:51:56.991Z,12.65
2019-03-21T09:52:56.967Z,12.71
2019-03-21T09:53:56.980Z,12.76
2019-03-21T09:54:56.937Z,12.81
2019-03-21T09:55:57.167Z,12.95
2019-03-21T09:56:56.981Z,12.98
2019-03-21T09:57:56.953Z,12.99
2019-03-21T09:58:56.944Z,13.08
2019-03-21T09:59:56.894Z,13.11
2019-03-21T10:00:56.922Z,13.08
2019-03-21T10:01:56.883Z,13.21
2019-03-21T10:02:56.933Z,13.23
2019-03-21T10:03:56.840Z,13.24
2019-03-21T10:04:56.823Z,13.23
2019-03-21T10:05:56.817Z,13.17
2019-03-21T10:06:56.876Z,13.21
2019-03-21T10:07:59.348Z,13.26
2019-03-21T10:08:56.785Z,13.29
2019-03-21T10:09:56.780Z,13.29
2019-03-21T10:10:56.837Z,13.42
2019-03-21T10:11:56.779Z,13.43
2019-03-21T10:12:56.743Z,13.57
2019-03-21T10:13:56.785Z,13.53
2019-03-21T10:14:56.732Z,13.71
2019-03-21T10:15:56.712Z,13.64
2019-03-21T10:16:56.723Z,13.79
2019-03-21T10:17:56.705Z,13.78
2019-03-21T10:18:56.668Z,13.86
2019-03-21T10:19:56.702Z,13.91
2019-03-21T10:20:56.665Z,13.98
2019-03-21T10:21:56.652Z,14.09
2019-03-21T10:22:56.656Z,14.23
2019-03-21T10:23:56.632Z,14.23
2019-03-21T10:24:56.612Z,14.26
2019-03-21T10:25:57.130Z,14.31
2019-03-21T10:26:56.579Z,14.33
2019-03-21T10:27:57.536Z,14.37
2019-03-21T10:28:56.614Z,14.51
2019-03-21T10:29:56.564Z,14.63
2019-03-21T10:30:57.321Z,14.67
2019-03-21T10:31:56.526Z,14.61
2019-03-21T10:32:56.523Z,14.61
2019-03-21T10:33:56.508Z,14.63
2019-03-21T10:34:56.521Z,14.64
2019-03-21T10:35:56.543Z,14.64
2019-03-21T10:36:56.489Z,14.63
2019-03-21T10:37:56.484Z,14.63
2019-03-21T10:38:56.449Z,14.56
2019-03-21T10:39:56.497Z,14.55
2019-03-21T10:40:56.536Z,14.64
2019-03-21T10:41:56.470Z,14.59
2019-03-21T10:42:56.433Z,14.67
2019-03-21T10:43:56.420Z,14.78
2019-03-21T10:44:56.482Z,14.89
2019-03-21T10:45:57.030Z,14.85
2019-03-21T10:46:56.410Z,14.93
2019-03-21T10:47:56.354Z,14.85
2019-03-21T10:48:56.358Z,14.92
2019-03-21T10:49:56.378Z,14.99
2019-03-21T10:50:56.338Z,14.96
2019-03-21T10:51:56.576Z,14.99
2019-03-21T10:52:56.339Z,14.99
2019-03-21T10:53:56.316Z,15.08
2019-03-21T10:54:56.371Z,15.12
2019-03-21T10:55:56.344Z,15.20
2019-03-21T10:56:56.423Z,15.22
2019-03-21T10:57:56.367Z,15.27
2019-03-21T10:58:56.347Z,15.35
2019-03-21T10:59:56.221Z,15.35
2019-03-21T11:00:56.233Z,15.33
2019-03-21T11:02:06.840Z,15.35
2019-03-21T11:02:57.186Z,15.32
2019-03-21T11:03:56.228Z,15.27
2019-03-21T11:04:56.194Z,15.41
2019-03-21T11:05:56.157Z,15.41
2019-03-21T11:06:56.145Z,15.41
2019-03-21T11:07:56.191Z,15.36
2019-03-21T11:08:56.184Z,15.50
2019-03-21T11:09:56.116Z,15.59
2019-03-21T11:10:56.158Z,15.63
2019-03-21T11:11:56.141Z,15.72
2019-03-21T11:12:56.122Z,15.66
2019-03-21T11:13:56.126Z,15.69
2019-03-21T11:14:56.080Z,15.68
2019-03-21T11:15:56.129Z,15.78
2019-03-21T11:16:56.050Z,15.87
2019-03-21T11:17:56.042Z,15.76
2019-03-21T11:18:56.017Z,15.81
2019-03-21T11:19:56.055Z,15.90
2019-03-21T11:20:55.992Z,15.85
2019-03-21T11:22:05.750Z,15.88
2019-03-21T11:22:56.974Z,15.76
2019-03-21T11:23:55.958Z,15.76
2019-03-21T11:24:55.948Z,15.78
2019-03-21T11:25:56.014Z,15.87
2019-03-21T11:26:55.919Z,15.78
2019-03-21T11:27:55.915Z,15.88
2019-03-21T11:28:55.909Z,15.95
2019-03-21T11:29:55.931Z,15.81
2019-03-21T11:30:55.876Z,15.88
2019-03-21T11:31:55.862Z,15.85
2019-03-21T11:32:55.856Z,15.98
2019-03-21T11:33:55.904Z,15.98
2019-03-21T11:34:56.437Z,16.02
2019-03-21T11:35:55.839Z,16.02
2019-03-21T11:36:55.876Z,16.14
2019-03-21T11:37:55.804Z,16.24
2019-03-21T11:38:55.803Z,16.43
2019-03-21T11:39:55.829Z,16.49
2019-03-21T11:40:55.830Z,16.55
2019-03-21T11:41:55.778Z,16.65
2019-03-21T11:42:55.816Z,16.70
2019-03-21T11:43:55.757Z,16.67
2019-03-21T11:44:55.728Z,16.69
2019-03-21T11:45:56.122Z,16.59
2019-03-21T11:46:55.705Z,16.51
2019-03-21T11:47:55.716Z,16.61
2019-03-21T11:48:56.545Z,16.54
2019-03-21T11:49:55.698Z,16.54
2019-03-21T11:50:55.666Z,16.64
2019-03-21T11:51:55.664Z,16.77
2019-03-21T11:52:55.677Z,16.91
2019-03-21T11:53:55.694Z,17.10
2019-03-21T11:54:56.539Z,17.14
2019-03-21T11:55:55.656Z,16.99
2019-03-21T11:56:55.597Z,16.94
2019-03-21T11:57:55.581Z,16.83
2019-03-21T11:58:55.567Z,16.61
2019-03-21T11:59:55.628Z,16.62
2019-03-21T12:00:55.597Z,16.57
2019-03-21T12:01:55.535Z,16.55
2019-03-21T12:02:55.528Z,16.77
2019-03-21T12:03:55.631Z,17.06
2019-03-21T12:04:55.509Z,17.20
2019-03-21T12:05:55.607Z,17.35
2019-03-21T12:06:55.513Z,17.13
2019-03-21T12:07:55.471Z,17.14
2019-03-21T12:08:55.476Z,17.12
2019-03-21T12:09:55.522Z,17.10
2019-03-21T12:10:55.483Z,17.13
2019-03-21T12:11:55.461Z,16.90
2019-03-21T12:12:55.480Z,16.77
2019-03-21T12:13:55.408Z,16.62
2019-03-21T12:14:55.445Z,16.62
2019-03-21T12:15:55.420Z,16.65
2019-03-21T12:16:55.382Z,16.87
2019-03-21T12:17:55.412Z,17.09
2019-03-21T12:18:55.397Z,17.10
2019-03-21T12:19:55.404Z,17.28
2019-03-21T12:20:55.378Z,17.37
2019-03-21T12:21:55.316Z,17.47
2019-03-21T12:22:55.319Z,17.46
2019-03-21T12:23:55.545Z,17.50
2019-03-21T12:24:55.333Z,17.66
2019-03-21T12:25:55.380Z,17.76
2019-03-21T12:26:55.317Z,18.03
2019-03-21T12:27:55.277Z,18.01
2019-03-21T12:28:55.239Z,18.17
2019-03-21T12:29:55.248Z,18.21
2019-03-21T12:30:55.210Z,18.15
2019-03-21T12:31:55.250Z,18.20
2019-03-21T12:32:55.192Z,18.34
2019-03-21T12:33:55.301Z,18.30
2019-03-21T12:34:56.064Z,18.30
2019-03-21T12:35:55.165Z,18.43
2019-03-21T12:36:55.554Z,18.46
2019-03-21T12:37:55.137Z,18.54
2019-03-21T12:38:55.184Z,18.54
2019-03-21T12:39:55.172Z,18.54
2019-03-21T12:40:55.108Z,18.33
2019-03-21T12:41:55.108Z,18.38
2019-03-21T12:42:55.096Z,18.46
2019-03-21T12:43:55.070Z,18.28
2019-03-21T12:44:55.549Z,18.39
2019-03-21T12:45:55.310Z,18.60
2019-03-21T12:46:55.045Z,18.76
2019-03-21T12:47:55.045Z,18.86
2019-03-21T12:48:55.027Z,18.88
2019-03-21T12:49:55.055Z,18.68
2019-03-21T12:50:55.054Z,18.43
2019-03-21T12:51:55.057Z,18.42
2019-03-21T12:52:55.007Z,18.43
2019-03-21T12:53:54.995Z,18.48
2019-03-21T12:54:55.008Z,18.28
2019-03-21T12:55:54.952Z,18.12
2019-03-21T12:56:55.000Z,18.15
2019-03-21T12:57:54.923Z,18.28
2019-03-21T12:58:54.961Z,18.38
2019-03-21T12:59:54.903Z,18.56
2019-03-21T13:00:54.889Z,18.51
2019-03-21T13:01:54.891Z,18.41
2019-03-21T13:02:54.879Z,18.38
2019-03-21T13:03:55.537Z,18.46
2019-03-21T13:04:55.589Z,18.52
2019-03-21T13:05:54.831Z,18.78
2019-03-21T13:06:54.832Z,18.79
2019-03-21T13:07:54.862Z,18.58
2019-03-21T13:08:55.596Z,18.39